createdAt,value
2022-12-11T00:00:31.663Z,53.60
2022-12-11T00:03:02.927Z,53.84
2022-12-11T00:05:34.032Z,54.58
2022-12-11T00:08:05.369Z,54.99
2022-12-11T00:10:38.041Z,54.74
2022-12-11T00:13:09.299Z,54.84
2022-12-11T00:15:40.686Z,55.33
2022-12-11T00:18:16.127Z,55.38
2022-12-11T00:20:47.241Z,55.79
2022-12-11T00:23:18.847Z,55.87
2022-12-11T00:25:51.157Z,55.88
2022-12-11T00:28:23.131Z,56.54
2022-12-11T00:30:54.391Z,61.26
2022-12-11T00:33:25.513Z,63.53
2022-12-11T00:35:56.629Z,65.24
2022-12-11T00:38:27.932Z,65.91
2022-12-11T00:41:02.366Z,66.67
2022-12-11T00:43:33.596Z,67.29
2022-12-11T00:46:05.388Z,64.71
2022-12-11T00:48:36.735Z,62.81
2022-12-11T00:51:08.508Z,62.53
2022-12-11T00:53:40.756Z,62.91
2022-12-11T00:56:17.379Z,62.23
2022-12-11T00:58:50.357Z,62.59
2022-12-11T01:01:25.188Z,62.20
2022-12-11T01:03:56.633Z,62.84
2022-12-11T01:06:29.649Z,63.21
2022-12-11T01:09:19.101Z,63.18
2022-12-11T01:11:50.254Z,63.36
2022-12-11T01:14:21.532Z,63.59
2022-12-11T01:16:52.862Z,62.96
2022-12-11T01:19:24.444Z,63.54
2022-12-11T01:21:55.745Z,63.58
2022-12-11T01:24:26.913Z,63.08
2022-12-11T01:26:58.039Z,66.96
2022-12-11T01:29:29.168Z,66.75
2022-12-11T01:32:00.386Z,67.59
2022-12-11T01:34:32.790Z,65.64
2022-12-11T01:37:03.914Z,66.28
2022-12-11T01:39:35.246Z,65.64
2022-12-11T01:42:08.210Z,65.50
2022-12-11T01:44:39.420Z,65.58
2022-12-11T01:47:10.573Z,65.01
2022-12-11T01:49:43.363Z,66.24
2022-12-11T01:52:23.170Z,66.49
2022-12-11T01:54:54.282Z,64.16
2022-12-11T01:57:25.923Z,64.11
2022-12-11T01:59:57.975Z,63.75
2022-12-11T02:02:32.389Z,63.07
2022-12-11T02:05:08.975Z,62.96
2022-12-11T02:07:48.338Z,62.78
2022-12-11T02:10:20.403Z,63.21
2022-12-11T02:12:59.440Z,63.00
2022-12-11T02:15:44.413Z,62.95
2022-12-11T02:18:32.368Z,63.08
2022-12-11T02:21:03.779Z,62.84
2022-12-11T02:23:41.063Z,63.32
2022-12-11T02:26:50.139Z,62.87
2022-12-11T02:29:36.137Z,63.81
2022-12-11T02:32:17.396Z,63.13
2022-12-11T02:34:59.891Z,63.35
2022-12-11T02:37:35.362Z,63.29
2022-12-11T02:40:10.799Z,63.02
2022-12-11T02:42:45.322Z,62.83
2022-12-11T02:45:18.426Z,62.90
2022-12-11T02:47:51.465Z,63.25
2022-12-11T02:50:25.260Z,63.12
2022-12-11T02:52:59.305Z,62.82
2022-12-11T02:55:31.599Z,62.66
2022-12-11T02:58:06.927Z,63.31
2022-12-11T03:00:38.534Z,63.12
2022-12-11T03:03:09.940Z,62.85
2022-12-11T03:05:41.650Z,63.04
2022-12-11T03:08:12.845Z,63.44
2022-12-11T03:10:43.946Z,62.97
2022-12-11T03:13:19.304Z,62.85
2022-12-11T03:16:08.847Z,62.74
2022-12-11T03:19:02.762Z,65.11
2022-12-11T03:21:40.854Z,64.96
2022-12-11T03:24:23.486Z,65.66
2022-12-11T03:27:05.656Z,66.13
2022-12-11T03:29:49.127Z,65.96
2022-12-11T03:32:25.483Z,66.18
2022-12-11T03:35:07.734Z,66.44
2022-12-11T03:37:39.431Z,67.61
2022-12-11T03:40:17.695Z,66.84
2022-12-11T03:42:53.267Z,66.83
2022-12-11T03:45:26.624Z,66.63
2022-12-11T03:48:01.591Z,66.68
2022-12-11T03:50:36.057Z,66.87
2022-12-11T03:53:07.933Z,66.89
2022-12-11T03:55:41.509Z,67.02
2022-12-11T03:58:13.103Z,66.94
2022-12-11T04:00:45.069Z,67.19
2022-12-11T04:03:17.214Z,67.17
2022-12-11T04:05:51.496Z,66.97
2022-12-11T04:08:24.209Z,66.98
2022-12-11T04:11:28.411Z,67.27
2022-12-11T04:14:17.813Z,66.80
2022-12-11T04:16:48.969Z,66.70
2022-12-11T04:19:39.854Z,67.31
2022-12-11T04:22:31.505Z,66.74
2022-12-11T04:25:04.361Z,66.87
2022-12-11T04:27:51.038Z,66.77
2022-12-11T04:30:33.727Z,66.18
2022-12-11T04:33:05.889Z,66.21
2022-12-11T04:35:38.108Z,66.79
2022-12-11T04:38:09.720Z,66.28
2022-12-11T04:40:41.065Z,66.09
2022-12-11T04:43:12.229Z,66.33
2022-12-11T04:45:43.290Z,66.00
2022-12-11T04:48:14.381Z,65.79
2022-12-11T04:50:45.642Z,65.69
2022-12-11T04:53:17.135Z,65.07
2022-12-11T04:55:48.322Z,64.86
2022-12-11T04:58:20.256Z,64.69
2022-12-11T05:00:51.362Z,64.66
2022-12-11T05:03:22.528Z,64.70
2022-12-11T05:05:55.396Z,64.06
2022-12-11T05:08:26.611Z,64.30
2022-12-11T05:11:09.969Z,66.69
2022-12-11T05:13:41.473Z,65.07
2022-12-11T05:16:16.247Z,63.44
2022-12-11T05:18:48.849Z,62.07
2022-12-11T05:21:20.070Z,60.11
2022-12-11T05:23:51.239Z,59.51
2022-12-11T05:26:22.927Z,58.23
2022-12-11T05:28:56.142Z,58.09
2022-12-11T05:31:30.198Z,57.81
2022-12-11T05:34:01.370Z,56.62
2022-12-11T05:36:36.620Z,56.52
2022-12-11T05:39:08.053Z,56.29
2022-12-11T05:41:39.486Z,55.76
2022-12-11T05:44:15.018Z,54.32
2022-12-11T05:46:46.220Z,54.61
2022-12-11T05:49:19.986Z,53.83
2022-12-11T05:51:51.847Z,53.92
2022-12-11T05:54:23.034Z,53.35
2022-12-11T05:56:54.223Z,52.68
2022-12-11T05:59:25.370Z,52.28
2022-12-11T06:01:56.636Z,53.14
2022-12-11T06:04:27.806Z,52.19
2022-12-11T06:06:58.968Z,52.31
2022-12-11T06:09:30.310Z,51.44
2022-12-11T06:12:01.522Z,50.89
2022-12-11T06:14:32.671Z,51.35
2022-12-11T06:17:03.820Z,50.31
2022-12-11T06:19:36.983Z,50.19
2022-12-11T06:22:08.455Z,50.00
2022-12-11T06:24:39.890Z,50.13
2022-12-11T06:27:11.520Z,49.85
2022-12-11T06:29:42.840Z,49.73
2022-12-11T06:32:14.047Z,48.76
2022-12-11T06:34:45.294Z,48.96
2022-12-11T06:37:16.413Z,48.98
2022-12-11T06:39:47.630Z,48.44
2022-12-11T06:42:18.933Z,48.70
2022-12-11T06:44:49.983Z,47.46
2022-12-11T06:47:21.253Z,47.52
2022-12-11T06:49:52.756Z,47.08
2022-12-11T06:52:25.652Z,46.45
2022-12-11T06:54:57.470Z,47.57
2022-12-11T06:57:28.578Z,46.78
2022-12-11T06:59:59.692Z,46.57
2022-12-11T07:02:30.846Z,47.26
2022-12-11T07:05:02.124Z,46.73
2022-12-11T07:07:33.680Z,46.50
2022-12-11T07:10:08.411Z,45.70
2022-12-11T07:12:40.874Z,45.63
2022-12-11T07:15:12.649Z,45.49
2022-12-11T07:17:43.526Z,45.97
2022-12-11T07:20:14.867Z,45.30
2022-12-11T07:22:46.767Z,45.23
2022-12-11T07:25:17.500Z,45.60
2022-12-11T07:27:48.862Z,45.05
2022-12-11T07:30:20.518Z,44.98
2022-12-11T07:32:52.350Z,44.69
2022-12-11T07:35:23.715Z,46.03
2022-12-11T07:37:55.031Z,45.33
2022-12-11T07:40:26.295Z,44.75
2022-12-11T07:42:57.445Z,44.81
2022-12-11T07:45:28.645Z,44.20
2022-12-11T07:48:00.709Z,44.06
2022-12-11T07:50:35.131Z,44.68
2022-12-11T07:53:09.200Z,44.12
2022-12-11T07:55:40.322Z,44.64
2022-12-11T07:58:11.577Z,44.63
2022-12-11T08:00:43.155Z,44.20
2022-12-11T08:03:14.573Z,44.82
2022-12-11T08:05:53.837Z,44.04
2022-12-11T08:08:25.065Z,44.00
2022-12-11T08:10:56.390Z,45.01
2022-12-11T08:13:27.566Z,45.99
2022-12-11T08:15:59.086Z,45.79
2022-12-11T08:18:30.339Z,47.07
2022-12-11T08:21:01.724Z,47.16
2022-12-11T08:23:33.348Z,47.98
2022-12-11T08:26:12.917Z,47.64
2022-12-11T08:28:44.614Z,47.87
2022-12-11T08:31:20.243Z,47.72
2022-12-11T08:33:52.873Z,48.28
2022-12-11T08:36:24.677Z,48.81
2022-12-11T08:38:57.941Z,48.22
2022-12-11T08:41:31.944Z,48.14
2022-12-11T08:44:04.689Z,48.68
2022-12-11T08:46:37.468Z,48.84
2022-12-11T08:49:09.152Z,49.07
2022-12-11T08:51:40.571Z,49.13
2022-12-11T08:54:13.835Z,49.39
2022-12-11T08:56:45.386Z,49.60
2022-12-11T08:59:17.077Z,49.70
2022-12-11T09:02:06.498Z,49.96
2022-12-11T09:04:37.939Z,50.27
2022-12-11T09:07:09.284Z,51.13
2022-12-11T09:09:40.920Z,53.18
2022-12-11T09:12:12.045Z,55.56
2022-12-11T09:14:43.428Z,55.52
2022-12-11T09:17:14.973Z,56.15
2022-12-11T09:19:46.625Z,57.96
2022-12-11T09:22:18.607Z,60.17
2022-12-11T09:24:49.942Z,60.70
2022-12-11T09:27:22.810Z,61.50
2022-12-11T09:29:54.372Z,61.68
2022-12-11T09:32:25.569Z,62.09
2022-12-11T09:34:56.852Z,62.24
2022-12-11T09:37:28.470Z,62.54
2022-12-11T09:40:05.587Z,62.41
2022-12-11T09:43:11.515Z,62.90
2022-12-11T09:45:43.588Z,63.44
2022-12-11T09:48:21.439Z,63.84
2022-12-11T09:50:57.004Z,63.98
2022-12-11T09:53:39.267Z,63.96
2022-12-11T09:56:33.844Z,64.04
2022-12-11T09:59:13.692Z,63.72
2022-12-11T10:01:56.746Z,63.65
2022-12-11T10:04:37.660Z,63.74
2022-12-11T10:07:41.126Z,63.34
2022-12-11T10:10:44.924Z,63.50
2022-12-11T10:13:52.609Z,63.16
2022-12-11T10:16:46.495Z,62.15
2022-12-11T10:19:29.080Z,61.63
2022-12-11T10:22:03.066Z,61.43
2022-12-11T10:25:10.653Z,61.33
2022-12-11T10:27:43.117Z,60.80
2022-12-11T10:30:22.851Z,61.20
2022-12-11T10:33:05.488Z,60.53
2022-12-11T10:35:46.441Z,60.95
2022-12-11T10:38:30.402Z,60.68
2022-12-11T10:41:12.918Z,60.95
2022-12-11T10:43:47.576Z,60.50
2022-12-11T10:46:20.847Z,60.19
2022-12-11T10:48:55.148Z,60.26
2022-12-11T10:51:44.485Z,60.54
2022-12-11T10:54:39.909Z,60.56
2022-12-11T10:57:16.029Z,60.12
2022-12-11T10:59:52.279Z,60.50
2022-12-11T11:02:34.529Z,60.44
2022-12-11T11:05:19.063Z,60.25
2022-12-11T11:07:50.679Z,60.11
2022-12-11T11:10:22.808Z,60.17
2022-12-11T11:13:03.548Z,60.47
2022-12-11T11:15:35.258Z,60.33
2022-12-11T11:18:18.672Z,60.79
2022-12-11T11:20:51.210Z,61.39
2022-12-11T11:23:24.387Z,60.70
2022-12-11T11:26:02.342Z,61.07
2022-12-11T11:28:43.045Z,61.22
2022-12-11T11:31:16.991Z,61.02
2022-12-11T11:33:57.466Z,60.91
2022-12-11T11:36:31.284Z,60.61
2022-12-11T11:39:28.816Z,60.65
2022-12-11T11:42:12.544Z,60.62
2022-12-11T11:44:59.805Z,60.92
2022-12-11T11:47:38.879Z,61.02
2022-12-11T11:50:28.698Z,60.97
2022-12-11T11:53:04.878Z,61.37
2022-12-11T11:56:04.943Z,61.15
2022-12-11T11:59:06.338Z,61.46
2022-12-11T12:01:38.231Z,61.05
2022-12-11T12:04:09.924Z,60.91
2022-12-11T12:07:06.233Z,60.71
2022-12-11T12:09:40.369Z,61.18
2022-12-11T12:12:28.549Z,61.13
2022-12-11T12:15:20.011Z,61.28
2022-12-11T12:18:01.918Z,60.95
2022-12-11T12:20:48.777Z,60.81
2022-12-11T12:23:50.484Z,61.04
2022-12-11T12:26:54.056Z,61.05
2022-12-11T12:29:55.406Z,61.04
2022-12-11T12:32:49.581Z,61.04
2022-12-11T12:35:39.945Z,61.31
2022-12-11T12:38:17.482Z,61.46
2022-12-11T12:41:15.745Z,61.55
2022-12-11T12:44:07.200Z,61.73
2022-12-11T12:46:58.338Z,61.78
2022-12-11T12:49:52.323Z,62.20
2022-12-11T12:52:39.133Z,61.67
2022-12-11T12:55:20.311Z,61.69
2022-12-11T12:58:06.580Z,61.46
2022-12-11T13:00:41.096Z,61.74
2022-12-11T13:03:21.782Z,61.98
2022-12-11T13:06:12.644Z,62.44
2022-12-11T13:08:54.058Z,62.59
2022-12-11T13:11:35.856Z,62.40
2022-12-11T13:14:24.494Z,62.96
2022-12-11T13:17:28.164Z,62.33
2022-12-11T13:20:27.122Z,62.25
2022-12-11T13:23:28.893Z,62.28
2022-12-11T13:26:03.472Z,62.67
2022-12-11T13:28:40.628Z,62.47
2022-12-11T13:31:18.039Z,61.95
2022-12-11T13:33:59.561Z,62.11
2022-12-11T13:36:39.198Z,61.59
2022-12-11T13:39:41.332Z,61.56
2022-12-11T13:42:35.319Z,61.96
2022-12-11T13:45:07.335Z,62.15
2022-12-11T13:47:39.420Z,62.28
2022-12-11T13:50:46.463Z,61.92
2022-12-11T13:53:20.681Z,62.01
2022-12-11T13:56:24.724Z,60.78
2022-12-11T13:58:56.673Z,59.98
2022-12-11T14:01:34.124Z,58.88
2022-12-11T14:04:17.850Z,58.45
2022-12-11T14:06:50.190Z,58.40
2022-12-11T14:09:25.976Z,57.48
2022-12-11T14:11:59.206Z,57.13
2022-12-11T14:14:52.888Z,58.72
2022-12-11T14:17:30.350Z,59.42
2022-12-11T14:20:04.940Z,58.75
2022-12-11T14:22:36.378Z,58.42
2022-12-11T14:25:25.064Z,57.86
2022-12-11T14:27:58.735Z,57.45
2022-12-11T14:30:31.083Z,56.96
2022-12-11T14:33:04.657Z,57.10
2022-12-11T14:35:40.915Z,56.61
2022-12-11T14:38:44.766Z,55.85
2022-12-11T14:41:23.476Z,55.47
2022-12-11T14:44:00.516Z,54.80
2022-12-11T14:46:42.306Z,55.48
2022-12-11T14:49:41.877Z,54.42
2022-12-11T14:52:32.266Z,53.96
2022-12-11T14:55:12.094Z,53.62
2022-12-11T14:57:47.757Z,53.07
2022-12-11T15:00:31.782Z,53.26
2022-12-11T15:03:14.387Z,52.88
2022-12-11T15:05:56.210Z,53.88
2022-12-11T15:08:34.307Z,52.39
2022-12-11T15:11:12.400Z,52.20
2022-12-11T15:13:57.649Z,52.01
2022-12-11T15:16:33.592Z,53.44
2022-12-11T15:19:05.834Z,53.14
2022-12-11T15:21:39.740Z,52.69
2022-12-11T15:24:26.653Z,52.69
2022-12-11T15:27:02.547Z,52.73
2022-12-11T15:29:38.707Z,52.49
2022-12-11T15:32:16.301Z,52.40
2022-12-11T15:34:49.782Z,52.36
2022-12-11T15:37:38.054Z,52.59
2022-12-11T15:40:10.261Z,53.33
2022-12-11T15:42:43.950Z,53.38
2022-12-11T15:45:23.708Z,52.82
2022-12-11T15:47:56.363Z,52.39
2022-12-11T15:50:32.319Z,51.31
2022-12-11T15:53:03.734Z,52.67
2022-12-11T15:55:36.535Z,51.78
2022-12-11T15:58:14.315Z,51.51
2022-12-11T16:00:46.167Z,51.70
2022-12-11T16:03:20.457Z,51.82
2022-12-11T16:05:53.157Z,51.45
2022-12-11T16:08:25.987Z,51.19
2022-12-11T16:10:58.103Z,51.46
2022-12-11T16:13:28.844Z,50.83
2022-12-11T16:16:00.289Z,51.46
2022-12-11T16:18:34.656Z,51.11
2022-12-11T16:21:08.085Z,50.51
2022-12-11T16:23:39.829Z,50.89
2022-12-11T16:26:12.015Z,50.67
2022-12-11T16:28:43.997Z,50.59
2022-12-11T16:31:17.437Z,50.27
2022-12-11T16:33:48.867Z,50.33
2022-12-11T16:36:22.272Z,49.81
2022-12-11T16:38:54.324Z,50.68
2022-12-11T16:41:28.293Z,50.18
2022-12-11T16:44:02.874Z,50.37
2022-12-11T16:46:34.316Z,50.16
2022-12-11T16:49:06.702Z,49.43
2022-12-11T16:51:38.205Z,50.32
2022-12-11T16:54:09.669Z,50.21
2022-12-11T16:56:41.184Z,50.69
2022-12-11T16:59:14.449Z,50.21
2022-12-11T17:01:46.569Z,49.94
2022-12-11T17:04:18.094Z,50.43
2022-12-11T17:06:50.100Z,49.90
2022-12-11T17:09:22.782Z,49.75
2022-12-11T17:11:54.282Z,49.18
2022-12-11T17:14:25.625Z,50.15
2022-12-11T17:16:58.112Z,50.10
2022-12-11T17:19:29.578Z,50.06
2022-12-11T17:22:01.035Z,49.44
2022-12-11T17:24:32.393Z,49.87
2022-12-11T17:27:03.844Z,49.55
2022-12-11T17:29:35.247Z,49.85
2022-12-11T17:32:07.023Z,49.91
2022-12-11T17:34:38.863Z,49.46
2022-12-11T17:37:10.280Z,49.34
2022-12-11T17:39:41.769Z,49.79
2022-12-11T17:42:13.461Z,49.20
2022-12-11T17:44:46.852Z,49.21
2022-12-11T17:47:18.415Z,49.38
2022-12-11T17:49:50.006Z,48.97
2022-12-11T17:52:21.533Z,48.60
2022-12-11T17:54:54.509Z,48.83
2022-12-11T17:57:25.978Z,48.34
2022-12-11T17:59:58.127Z,47.83
2022-12-11T18:02:29.987Z,48.16
2022-12-11T18:05:01.876Z,48.40
2022-12-11T18:07:33.264Z,48.37
2022-12-11T18:10:04.951Z,48.28
2022-12-11T18:12:36.296Z,47.65
2022-12-11T18:15:08.189Z,48.79
2022-12-11T18:17:39.739Z,48.13
2022-12-11T18:20:15.911Z,48.15
2022-12-11T18:22:47.255Z,48.03
2022-12-11T18:25:18.859Z,48.40
2022-12-11T18:27:50.303Z,48.66
2022-12-11T18:30:21.954Z,47.99
2022-12-11T18:32:54.545Z,49.04
2022-12-11T18:35:26.894Z,49.10
2022-12-11T18:37:59.188Z,49.14
2022-12-11T18:40:30.775Z,48.70
2022-12-11T18:43:02.057Z,48.00
2022-12-11T18:45:33.502Z,49.08
2022-12-11T18:48:05.047Z,48.42
2022-12-11T18:50:37.886Z,47.69
2022-12-11T18:53:08.687Z,49.13
2022-12-11T18:55:48.098Z,48.12
2022-12-11T18:58:21.986Z,48.42
2022-12-11T19:00:53.355Z,48.47
2022-12-11T19:03:24.813Z,48.69
2022-12-11T19:05:56.124Z,48.48
2022-12-11T19:08:27.451Z,48.67
2022-12-11T19:10:59.032Z,48.18
2022-12-11T19:13:30.311Z,48.25
2022-12-11T19:16:02.405Z,48.64
2022-12-11T19:18:33.836Z,48.25
2022-12-11T19:21:12.605Z,48.18
2022-12-11T19:23:45.243Z,48.04
2022-12-11T19:26:20.524Z,47.85
2022-12-11T19:28:52.930Z,47.89
2022-12-11T19:31:25.635Z,48.04
2022-12-11T19:33:58.562Z,47.83
2022-12-11T19:36:32.190Z,47.44
2022-12-11T19:39:07.089Z,47.75
2022-12-11T19:41:41.219Z,47.39
2022-12-11T19:44:12.961Z,47.48
2022-12-11T19:46:44.821Z,47.85
2022-12-11T19:49:16.892Z,47.47
2022-12-11T19:51:49.090Z,47.33
2022-12-11T19:54:20.790Z,47.29
2022-12-11T19:56:52.553Z,48.06
2022-12-11T19:59:24.013Z,47.12
2022-12-11T20:01:55.396Z,47.76
2022-12-11T20:04:28.123Z,47.89
2022-12-11T20:06:59.432Z,46.94
2022-12-11T20:09:31.639Z,46.98
2022-12-11T20:12:04.599Z,47.68
2022-12-11T20:14:36.101Z,46.83
2022-12-11T20:17:12.985Z,47.64
2022-12-11T20:19:45.565Z,47.48
2022-12-11T20:22:16.488Z,47.28
2022-12-11T20:24:47.713Z,47.64
2022-12-11T20:27:19.122Z,47.17
2022-12-11T20:29:50.610Z,47.40
2022-12-11T20:32:22.002Z,47.32
2022-12-11T20:34:56.976Z,47.60
2022-12-11T20:37:30.447Z,47.53
2022-12-11T20:40:02.245Z,47.32
2022-12-11T20:42:34.737Z,47.44
2022-12-11T20:45:07.218Z,47.43
2022-12-11T20:47:39.113Z,47.12
2022-12-11T20:50:12.541Z,46.91
2022-12-11T20:52:44.194Z,46.85
2022-12-11T20:55:16.368Z,46.92
2022-12-11T20:57:48.425Z,46.42
2022-12-11T21:00:20.534Z,46.65
2022-12-11T21:02:54.710Z,46.03
2022-12-11T21:05:26.362Z,46.53
2022-12-11T21:07:58.123Z,46.31
2022-12-11T21:10:29.451Z,46.27
2022-12-11T21:13:00.763Z,46.67
2022-12-11T21:15:32.403Z,46.57
2022-12-11T21:18:04.467Z,46.79
2022-12-11T21:20:36.972Z,47.36
2022-12-11T21:23:08.350Z,46.40
2022-12-11T21:25:42.071Z,46.51
2022-12-11T21:28:13.382Z,47.14
2022-12-11T21:30:44.963Z,47.11
2022-12-11T21:33:16.734Z,47.25
2022-12-11T21:35:54.987Z,46.80
2022-12-11T21:38:27.032Z,46.49
2022-12-11T21:40:59.158Z,46.91
2022-12-11T21:43:30.193Z,47.91
2022-12-11T21:46:02.351Z,46.96
2022-12-11T21:48:34.478Z,46.80
2022-12-11T21:51:20.831Z,46.68
2022-12-11T21:53:53.427Z,46.89
2022-12-11T21:56:26.862Z,47.13
2022-12-11T21:58:58.695Z,46.88
2022-12-11T22:01:34.989Z,46.21
2022-12-11T22:04:07.885Z,46.84
2022-12-11T22:06:39.345Z,46.58
2022-12-11T22:09:11.816Z,46.83
2022-12-11T22:11:44.965Z,45.95
2022-12-11T22:14:18.929Z,46.69
2022-12-11T22:16:50.919Z,46.14
2022-12-11T22:19:22.256Z,47.20
2022-12-11T22:21:53.976Z,46.41
2022-12-11T22:24:25.354Z,46.65
2022-12-11T22:26:57.799Z,46.39
2022-12-11T22:29:29.931Z,46.78
2022-12-11T22:32:00.747Z,46.75
2022-12-11T22:34:32.282Z,46.27
2022-12-11T22:37:04.472Z,46.72
2022-12-11T22:39:37.113Z,45.88
2022-12-11T22:42:08.949Z,45.78
2022-12-11T22:44:41.435Z,46.08
2022-12-11T22:47:13.327Z,46.10
2022-12-11T22:49:44.961Z,46.13
2022-12-11T22:52:16.599Z,46.00
2022-12-11T22:54:47.960Z,45.88
2022-12-11T22:57:19.351Z,45.92
2022-12-11T22:59:50.877Z,45.77
2022-12-11T23:02:22.276Z,44.38
2022-12-11T23:04:53.714Z,44.67
2022-12-11T23:07:25.107Z,45.36
2022-12-11T23:09:56.535Z,46.35
2022-12-11T23:12:27.956Z,46.72
2022-12-11T23:14:59.262Z,47.13
2022-12-11T23:17:30.669Z,47.56
2022-12-11T23:20:05.327Z,47.88
2022-12-11T23:22:37.122Z,48.33
2022-12-11T23:25:08.674Z,49.40
2022-12-11T23:27:40.252Z,52.63
2022-12-11T23:30:13.133Z,56.30
2022-12-11T23:32:44.461Z,58.60
2022-12-11T23:35:16.036Z,59.28
2022-12-11T23:37:48.860Z,59.66
2022-12-11T23:40:20.196Z,62.45
2022-12-11T23:42:51.858Z,62.76
2022-12-11T23:45:23.433Z,63.24
2022-12-11T23:47:54.742Z,63.35
2022-12-11T23:50:29.559Z,64.16
2022-12-11T23:53:00.898Z,62.26
2022-12-11T23:55:32.438Z,64.80
2022-12-11T23:58:04.012Z,65.47
